Terminal Aerodrome Forecast
Issued by NWS Glasgow, MT

Home | Current Version | Previous Version | Text Only | Print | Product List | Glossary On
Versions: 1 2 3 4 5 6 7 8 9 10 11 12 13 14 15
610
FTUS45 KGGW 230520
TAFGGW
TAF
KGGW 230520Z 2306/2406 04009KT P6SM FEW150
     FM231400 13009KT P6SM FEW120
     FM231800 18009KT P6SM SKC
     FM240300 11007KT P6SM FEW180=

USA.gov is the U.S. government's official web portal to all federal, state and local government web resources and services.